Terminal Aerodrome Forecast
Issued by NWS

Home | Current Version | Previous Version | Text Only | Print | Product List | Glossary On
Versions: 1 2 3 4 5 6 7 8 9 10 11 12 13 14 15 16 17 18
350
FTUS43 KIWX 141120
TAFSBN
TAF
KSBN 141120Z 1412/1512 13005KT P6SM FEW030 BKN250
     FM141500 13010KT P6SM OVC100
     FM141900 13012G18KT 3SM -SN OVC040
     FM142100 12012G18KT 1 1/2SM -SN OVC015
     FM150300 15008KT 3SM -SHSN BR SCT010 OVC020=

USA.gov is the U.S. government's official web portal to all federal, state and local government web resources and services.